createdAt,value
2022-10-16T00:01:20.996Z,15.00
2022-10-16T00:03:48.821Z,14.90
2022-10-16T00:06:16.956Z,14.80
2022-10-16T00:08:43.841Z,14.70
2022-10-16T00:11:16.450Z,14.70
2022-10-16T00:13:44.973Z,14.70
2022-10-16T00:16:13.192Z,14.60
2022-10-16T00:18:40.947Z,14.70
2022-10-16T00:21:13.512Z,14.60
2022-10-16T00:23:40.512Z,14.50
2022-10-16T00:26:10.562Z,14.60
2022-10-16T00:28:37.881Z,14.50
2022-10-16T00:31:06.480Z,14.50
2022-10-16T00:33:33.330Z,14.60
2022-10-16T00:36:01.056Z,14.60
2022-10-16T00:38:27.873Z,14.60
2022-10-16T00:40:54.549Z,14.60
2022-10-16T00:43:45.620Z,14.60
2022-10-16T00:46:24.443Z,14.70
2022-10-16T00:49:00.601Z,14.60
2022-10-16T00:51:34.497Z,14.50
2022-10-16T00:54:03.407Z,14.50
2022-10-16T00:56:30.050Z,14.60
2022-10-16T00:58:56.840Z,14.60
2022-10-16T01:01:23.460Z,14.50
2022-10-16T01:03:50.044Z,14.40
2022-10-16T01:06:29.546Z,14.40
2022-10-16T01:09:23.256Z,14.40
2022-10-16T01:12:10.330Z,14.50
2022-10-16T01:14:59.412Z,14.50
2022-10-16T01:17:58.640Z,14.50
2022-10-16T01:20:35.784Z,14.50
2022-10-16T01:23:02.292Z,14.50
2022-10-16T01:25:41.140Z,14.50
2022-10-16T01:28:13.058Z,14.50
2022-10-16T01:30:42.910Z,14.40
2022-10-16T01:33:17.829Z,14.40
2022-10-16T01:35:53.296Z,14.30
2022-10-16T01:38:30.201Z,14.30
2022-10-16T01:41:01.752Z,14.20
2022-10-16T01:43:34.497Z,14.20
2022-10-16T01:46:02.156Z,14.20
2022-10-16T01:48:30.440Z,14.20
2022-10-16T01:51:07.350Z,14.30
2022-10-16T01:53:34.469Z,14.30
2022-10-16T01:56:02.706Z,14.20
2022-10-16T01:58:35.424Z,14.10
2022-10-16T02:01:05.474Z,14.10
2022-10-16T02:03:35.151Z,14.10
2022-10-16T02:06:01.843Z,14.10
2022-10-16T02:08:30.719Z,14.20
2022-10-16T02:10:58.689Z,14.20
2022-10-16T02:13:28.991Z,14.20
2022-10-16T02:15:55.541Z,14.10
2022-10-16T02:18:22.630Z,14.00
2022-10-16T02:20:56.320Z,14.00
2022-10-16T02:23:34.539Z,14.00
2022-10-16T02:26:07.372Z,13.90
2022-10-16T02:28:46.235Z,13.90
2022-10-16T02:31:17.263Z,13.90
2022-10-16T02:33:45.084Z,13.90
2022-10-16T02:36:12.597Z,13.90
2022-10-16T02:38:40.606Z,13.90
2022-10-16T02:41:07.495Z,13.90
2022-10-16T02:43:34.814Z,13.80
2022-10-16T02:46:01.784Z,13.80
2022-10-16T02:48:28.324Z,13.80
2022-10-16T02:50:54.843Z,13.70
2022-10-16T02:53:21.428Z,13.60
2022-10-16T02:55:47.935Z,13.70
2022-10-16T02:58:14.484Z,13.60
2022-10-16T03:00:41.226Z,13.60
2022-10-16T03:03:07.831Z,13.50
2022-10-16T03:05:34.350Z,13.50
2022-10-16T03:08:01.602Z,13.50
2022-10-16T03:10:28.345Z,13.50
2022-10-16T03:12:54.923Z,13.40
2022-10-16T03:15:21.492Z,13.40
2022-10-16T03:17:48.104Z,13.40
2022-10-16T03:20:14.868Z,13.40
2022-10-16T03:22:41.427Z,13.40
2022-10-16T03:25:08.420Z,13.30
2022-10-16T03:27:35.116Z,13.30
2022-10-16T03:30:01.695Z,13.30
2022-10-16T03:32:29.464Z,13.20
2022-10-16T03:34:57.341Z,13.20
2022-10-16T03:37:24.328Z,13.20
2022-10-16T03:39:51.281Z,13.20
2022-10-16T03:42:17.851Z,13.10
2022-10-16T03:44:44.425Z,13.10
2022-10-16T03:47:10.938Z,13.10
2022-10-16T03:49:37.512Z,13.10
2022-10-16T03:52:04.088Z,13.20
2022-10-16T03:54:30.644Z,13.30
2022-10-16T03:56:57.168Z,13.30
2022-10-16T03:59:23.741Z,13.30
2022-10-16T04:01:50.273Z,13.30
2022-10-16T04:04:16.816Z,13.30
2022-10-16T04:06:43.384Z,13.30
2022-10-16T04:09:09.922Z,13.20
2022-10-16T04:11:37.897Z,13.20
2022-10-16T04:14:04.409Z,13.20
2022-10-16T04:16:31.047Z,13.20
2022-10-16T04:18:57.596Z,13.10
2022-10-16T04:21:26.228Z,13.10
2022-10-16T04:23:52.820Z,13.10
2022-10-16T04:26:19.460Z,13.10
2022-10-16T04:28:46.031Z,13.10
2022-10-16T04:31:12.735Z,13.10
2022-10-16T04:33:39.265Z,13.10
2022-10-16T04:36:05.979Z,13.10
2022-10-16T04:38:32.820Z,13.20
2022-10-16T04:40:59.336Z,13.10
2022-10-16T04:43:26.121Z,13.00
2022-10-16T04:45:53.002Z,13.10
2022-10-16T04:48:19.733Z,13.00
2022-10-16T04:50:49.292Z,13.00
2022-10-16T04:53:18.634Z,13.00
2022-10-16T04:55:45.189Z,13.00
2022-10-16T04:58:11.748Z,13.00
2022-10-16T05:00:39.157Z,13.10
2022-10-16T05:03:09.498Z,13.00
2022-10-16T05:05:37.311Z,13.00
2022-10-16T05:08:04.985Z,13.00
2022-10-16T05:10:31.687Z,13.00
2022-10-16T05:12:58.645Z,13.00
2022-10-16T05:15:25.960Z,13.10
2022-10-16T05:17:56.267Z,13.00
2022-10-16T05:20:24.999Z,13.00
2022-10-16T05:22:51.672Z,13.10
2022-10-16T05:25:18.300Z,13.10
2022-10-16T05:27:48.231Z,13.10
2022-10-16T05:30:14.883Z,13.10
2022-10-16T05:32:41.468Z,13.10
2022-10-16T05:35:11.719Z,13.20
2022-10-16T05:37:39.300Z,13.20
2022-10-16T05:40:06.452Z,13.10
2022-10-16T05:42:33.079Z,13.10
2022-10-16T05:44:59.629Z,13.10
2022-10-16T05:47:26.448Z,13.20
2022-10-16T05:49:53.188Z,13.20
2022-10-16T05:55:10.427Z,13.10
2022-10-16T05:57:36.984Z,13.10
2022-10-16T06:00:05.613Z,13.10
2022-10-16T06:02:32.206Z,13.10
2022-10-16T06:04:58.736Z,13.10
2022-10-16T06:07:25.699Z,13.00
2022-10-16T06:09:53.319Z,13.00
2022-10-16T06:12:20.112Z,13.10
2022-10-16T06:14:50.202Z,13.10
2022-10-16T06:17:17.095Z,13.10
2022-10-16T06:19:43.733Z,13.10
2022-10-16T06:22:10.614Z,13.20
2022-10-16T06:24:38.224Z,13.10
2022-10-16T06:27:05.717Z,13.10
2022-10-16T06:29:32.249Z,13.10
2022-10-16T06:31:58.768Z,13.00
2022-10-16T06:34:25.296Z,13.00
2022-10-16T06:36:51.860Z,13.00
2022-10-16T06:39:18.444Z,13.10
2022-10-16T06:41:45.140Z,13.10
2022-10-16T06:44:11.662Z,13.10
2022-10-16T06:46:38.226Z,13.10
2022-10-16T06:49:04.990Z,13.30
2022-10-16T06:51:33.020Z,13.30
2022-10-16T06:54:04.074Z,13.30
2022-10-16T06:56:32.576Z,13.40
2022-10-16T06:58:59.899Z,13.40
2022-10-16T07:01:27.650Z,13.50
2022-10-16T07:03:54.515Z,13.50
2022-10-16T07:06:24.244Z,13.50
2022-10-16T07:08:51.504Z,13.60
2022-10-16T07:11:20.906Z,13.70
2022-10-16T07:13:52.615Z,13.70
2022-10-16T07:16:25.175Z,13.70
2022-10-16T07:18:55.352Z,13.70
2022-10-16T07:21:23.637Z,13.80
2022-10-16T07:23:54.741Z,13.80
2022-10-16T07:26:23.013Z,13.80
2022-10-16T07:28:50.654Z,14.00
2022-10-16T07:31:19.129Z,14.00
2022-10-16T07:33:48.720Z,14.10
2022-10-16T07:36:18.706Z,14.10
2022-10-16T07:38:45.576Z,14.10
2022-10-16T07:41:14.418Z,14.10
2022-10-16T07:43:40.996Z,14.10
2022-10-16T07:46:08.870Z,14.20
2022-10-16T07:48:35.759Z,14.30
2022-10-16T07:51:04.436Z,14.30
2022-10-16T07:53:31.039Z,14.30
2022-10-16T07:56:06.679Z,14.30
2022-10-16T07:58:35.011Z,14.30
2022-10-16T08:01:05.835Z,14.30
2022-10-16T08:03:32.616Z,14.30
2022-10-16T08:05:59.398Z,14.20
2022-10-16T08:08:28.787Z,14.30
2022-10-16T08:10:56.841Z,14.30
2022-10-16T08:13:23.431Z,14.40
2022-10-16T08:15:51.195Z,14.50
2022-10-16T08:18:17.870Z,14.40
2022-10-16T08:20:44.423Z,14.50
2022-10-16T08:23:12.631Z,14.50
2022-10-16T08:25:39.620Z,14.50
2022-10-16T08:28:08.142Z,14.60
2022-10-16T08:30:35.296Z,14.70
2022-10-16T08:33:02.272Z,14.70
2022-10-16T08:35:29.018Z,14.80
2022-10-16T08:37:55.585Z,14.90
2022-10-16T08:40:26.452Z,14.90
2022-10-16T08:43:06.519Z,15.00
2022-10-16T08:45:39.920Z,15.10
2022-10-16T08:48:18.797Z,15.20
2022-10-16T08:50:46.486Z,15.20
2022-10-16T08:53:37.468Z,15.40
2022-10-16T08:56:04.172Z,15.50
2022-10-16T08:58:31.576Z,15.50
2022-10-16T09:01:04.757Z,15.60
2022-10-16T09:03:55.581Z,15.50
2022-10-16T09:10:02.595Z,15.70
2022-10-16T09:12:39.552Z,15.80
2022-10-16T09:15:18.951Z,15.80
2022-10-16T09:18:15.430Z,15.90
2022-10-16T09:21:11.115Z,15.80
2022-10-16T09:23:38.656Z,15.90
2022-10-16T09:26:10.752Z,16.00
2022-10-16T09:28:37.415Z,16.10
2022-10-16T09:31:04.548Z,16.30
2022-10-16T09:33:36.899Z,16.10
2022-10-16T09:36:06.377Z,16.10
2022-10-16T09:38:35.208Z,16.20
2022-10-16T09:41:04.284Z,16.20
2022-10-16T09:43:53.144Z,16.20
2022-10-16T09:46:28.993Z,16.10
2022-10-16T09:48:58.541Z,16.20
2022-10-16T09:51:33.661Z,16.30
2022-10-16T09:54:10.811Z,16.30
2022-10-16T09:56:40.029Z,16.30
2022-10-16T09:59:17.040Z,16.40
2022-10-16T10:01:49.545Z,16.50
2022-10-16T10:04:16.292Z,16.60
2022-10-16T10:06:49.145Z,16.60
2022-10-16T10:09:30.431Z,16.60
2022-10-16T10:12:04.408Z,16.70
2022-10-16T10:14:41.558Z,16.60
2022-10-16T10:17:14.017Z,16.60
2022-10-16T10:20:03.478Z,16.60
2022-10-16T10:22:41.726Z,16.70
2022-10-16T10:25:14.461Z,16.80
2022-10-16T10:27:47.423Z,16.80
2022-10-16T10:30:29.645Z,16.80
2022-10-16T10:33:34.037Z,16.80
2022-10-16T10:36:09.342Z,17.00
2022-10-16T10:38:59.790Z,17.00
2022-10-16T10:41:53.660Z,17.10
2022-10-16T10:44:26.173Z,17.20
2022-10-16T10:47:15.414Z,17.20
2022-10-16T10:50:07.777Z,17.20
2022-10-16T10:52:44.193Z,17.30
2022-10-16T10:55:16.534Z,17.50
2022-10-16T10:58:21.925Z,17.50
2022-10-16T11:00:57.806Z,17.50
2022-10-16T11:03:44.833Z,17.50
2022-10-16T11:06:33.952Z,17.60
2022-10-16T11:09:12.466Z,17.60
2022-10-16T11:12:01.082Z,17.50
2022-10-16T11:14:54.847Z,17.50
2022-10-16T11:17:28.912Z,17.60
2022-10-16T11:20:16.920Z,17.60
2022-10-16T11:22:55.683Z,17.70
2022-10-16T11:25:28.225Z,17.80
2022-10-16T11:28:14.132Z,18.00
2022-10-16T11:30:51.650Z,18.10
2022-10-16T11:33:32.627Z,18.20
2022-10-16T11:36:24.164Z,17.90
2022-10-16T11:39:09.748Z,17.60
2022-10-16T11:41:48.248Z,17.60
2022-10-16T11:44:51.211Z,17.60
2022-10-16T11:47:57.338Z,17.50
2022-10-16T11:50:50.935Z,17.40
2022-10-16T11:53:36.757Z,17.50
2022-10-16T11:56:05.312Z,17.70
2022-10-16T11:58:50.443Z,17.90
2022-10-16T12:01:43.796Z,17.90
2022-10-16T12:04:28.449Z,17.80
2022-10-16T12:07:09.971Z,17.60
2022-10-16T12:09:40.204Z,17.70
2022-10-16T12:12:25.746Z,17.70
2022-10-16T12:15:47.084Z,17.80
2022-10-16T12:18:25.868Z,17.90
2022-10-16T12:21:07.140Z,18.10
2022-10-16T12:23:57.566Z,18.40
2022-10-16T12:26:38.750Z,18.40
2022-10-16T12:29:25.855Z,18.40
2022-10-16T12:31:58.254Z,18.40
2022-10-16T12:34:47.301Z,18.40
2022-10-16T12:37:16.099Z,18.10
2022-10-16T12:39:43.204Z,18.10
2022-10-16T12:42:26.787Z,18.10
2022-10-16T12:44:54.410Z,18.10
2022-10-16T12:47:32.960Z,18.10
2022-10-16T12:49:59.822Z,18.10
2022-10-16T12:52:36.088Z,18.10
2022-10-16T12:55:03.120Z,18.10
2022-10-16T12:58:03.741Z,18.10
2022-10-16T13:00:41.707Z,18.10
2022-10-16T13:03:30.265Z,18.10
2022-10-16T13:06:14.906Z,18.20
2022-10-16T13:09:09.092Z,18.20
2022-10-16T13:12:07.954Z,18.30
2022-10-16T13:15:12.943Z,18.30
2022-10-16T13:18:06.119Z,18.30
2022-10-16T13:21:09.919Z,18.40
2022-10-16T13:24:07.768Z,18.50
2022-10-16T13:26:46.108Z,18.60
2022-10-16T13:29:14.744Z,18.50
2022-10-16T13:31:43.536Z,18.40
2022-10-16T13:34:23.236Z,18.40
2022-10-16T13:36:52.691Z,18.50
2022-10-16T13:39:31.117Z,18.50
2022-10-16T13:42:27.069Z,18.60
2022-10-16T13:44:56.566Z,18.80
2022-10-16T13:47:28.579Z,18.60
2022-10-16T13:50:07.259Z,18.60
2022-10-16T13:52:34.124Z,18.50
2022-10-16T13:55:02.201Z,18.30
2022-10-16T13:57:29.558Z,18.30
2022-10-16T13:59:56.361Z,18.30
2022-10-16T14:02:43.217Z,18.50
2022-10-16T14:05:11.582Z,18.60
2022-10-16T14:07:40.143Z,18.70
2022-10-16T14:10:19.489Z,18.50
2022-10-16T14:12:46.600Z,18.30
2022-10-16T14:15:22.436Z,18.10
2022-10-16T14:17:51.946Z,18.10
2022-10-16T14:20:19.741Z,18.30
2022-10-16T14:22:47.496Z,18.30
2022-10-16T14:25:40.628Z,18.40
2022-10-16T14:28:18.834Z,18.60
2022-10-16T14:30:57.160Z,18.70
2022-10-16T14:33:34.705Z,18.70
2022-10-16T14:36:10.427Z,18.50
2022-10-16T14:38:39.970Z,18.60
2022-10-16T14:41:07.078Z,18.60
2022-10-16T14:43:39.225Z,18.50
2022-10-16T14:46:18.397Z,18.50
2022-10-16T14:48:51.449Z,18.40
2022-10-16T14:51:19.851Z,18.50
2022-10-16T14:53:47.093Z,18.50
2022-10-16T14:56:24.918Z,18.40
2022-10-16T14:58:52.983Z,18.40
2022-10-16T15:01:19.709Z,18.60
2022-10-16T15:03:46.568Z,18.30
2022-10-16T15:06:14.945Z,18.20
2022-10-16T15:08:42.086Z,18.20
2022-10-16T15:11:20.221Z,18.30
2022-10-16T15:13:47.491Z,18.30
2022-10-16T15:16:16.920Z,18.40
2022-10-16T15:18:43.648Z,18.30
2022-10-16T15:21:25.581Z,18.30
2022-10-16T15:23:52.148Z,18.30
2022-10-16T15:26:18.736Z,18.50
2022-10-16T15:28:45.596Z,18.60
2022-10-16T15:31:12.136Z,18.60
2022-10-16T15:33:39.978Z,18.50
2022-10-16T15:36:07.537Z,18.50
2022-10-16T15:38:38.166Z,18.50
2022-10-16T15:41:05.509Z,18.50
2022-10-16T15:43:32.031Z,18.40
2022-10-16T15:46:04.697Z,18.30
2022-10-16T15:48:31.872Z,18.20
2022-10-16T15:50:58.463Z,18.20
2022-10-16T15:53:25.099Z,18.10
2022-10-16T15:55:52.139Z,18.10
2022-10-16T15:58:18.858Z,18.00
2022-10-16T16:00:45.469Z,18.00
2022-10-16T16:03:12.095Z,17.80
2022-10-16T16:05:44.100Z,17.80
2022-10-16T16:08:13.030Z,17.70
2022-10-16T16:10:39.649Z,17.60
2022-10-16T16:13:06.236Z,17.60
2022-10-16T16:15:32.748Z,17.60
2022-10-16T16:17:59.567Z,17.60
2022-10-16T16:20:26.396Z,17.50
2022-10-16T16:22:52.989Z,17.50
2022-10-16T16:25:19.760Z,17.60
2022-10-16T16:27:46.481Z,17.50
2022-10-16T16:30:18.224Z,17.50
2022-10-16T16:32:46.509Z,17.40
2022-10-16T16:35:13.019Z,17.40
2022-10-16T16:37:39.529Z,17.20
2022-10-16T16:40:06.575Z,17.10
2022-10-16T16:42:33.134Z,17.10
2022-10-16T16:45:00.908Z,17.20
2022-10-16T16:47:27.892Z,17.30
2022-10-16T16:49:54.724Z,17.20
2022-10-16T16:52:21.396Z,17.20
2022-10-16T16:54:52.552Z,17.10
2022-10-16T16:57:20.524Z,17.00
2022-10-16T16:59:47.151Z,16.90
2022-10-16T17:02:13.728Z,16.80
2022-10-16T17:04:41.083Z,16.80
2022-10-16T17:07:07.743Z,16.70
2022-10-16T17:09:34.264Z,16.80
2022-10-16T17:12:00.841Z,16.90
2022-10-16T17:14:27.884Z,17.10
2022-10-16T17:16:54.439Z,17.00
2022-10-16T17:19:21.174Z,17.00
2022-10-16T17:21:51.841Z,17.20
2022-10-16T17:24:20.950Z,17.30
2022-10-16T17:26:48.940Z,17.40
2022-10-16T17:29:16.485Z,17.40
2022-10-16T17:31:43.044Z,17.50
2022-10-16T17:34:11.961Z,17.50
2022-10-16T17:36:43.755Z,17.50
2022-10-16T17:39:13.141Z,17.40
2022-10-16T17:41:39.763Z,17.40
2022-10-16T17:44:07.871Z,17.40
2022-10-16T17:46:38.393Z,17.30
2022-10-16T17:49:08.187Z,17.30
2022-10-16T17:51:34.730Z,17.20
2022-10-16T17:54:01.931Z,17.20
2022-10-16T17:56:29.772Z,17.10
2022-10-16T17:58:59.786Z,17.10
2022-10-16T18:01:32.146Z,17.00
2022-10-16T18:04:17.639Z,17.00
2022-10-16T18:06:45.552Z,17.00
2022-10-16T18:09:15.411Z,16.90
2022-10-16T18:11:42.105Z,16.90
2022-10-16T18:14:08.728Z,16.80
2022-10-16T18:16:36.607Z,16.80
2022-10-16T18:19:04.312Z,16.80
2022-10-16T18:21:31.455Z,16.80
2022-10-16T18:23:59.500Z,16.80
2022-10-16T18:26:28.096Z,16.70
2022-10-16T18:28:56.560Z,16.70
2022-10-16T18:31:25.983Z,16.40
2022-10-16T18:33:52.784Z,15.70
2022-10-16T18:36:25.000Z,15.50
2022-10-16T18:38:52.209Z,15.50
2022-10-16T18:41:19.205Z,15.60
2022-10-16T18:43:45.987Z,15.60
2022-10-16T18:46:19.168Z,15.60
2022-10-16T18:48:47.773Z,15.60
2022-10-16T18:51:24.271Z,15.70
2022-10-16T18:54:00.038Z,15.80
2022-10-16T18:56:29.001Z,15.80
2022-10-16T18:58:59.037Z,15.90
2022-10-16T19:01:28.827Z,15.90
2022-10-16T19:04:13.312Z,15.90
2022-10-16T19:06:46.575Z,15.90
2022-10-16T19:09:14.919Z,15.80
2022-10-16T19:11:42.196Z,15.60
2022-10-16T19:14:10.400Z,15.40
2022-10-16T19:16:37.960Z,15.40
2022-10-16T19:19:06.899Z,15.30
2022-10-16T19:21:37.613Z,15.30
2022-10-16T19:24:04.389Z,15.40
2022-10-16T19:26:32.100Z,15.40
2022-10-16T19:29:01.415Z,15.40
2022-10-16T19:31:30.069Z,15.50
2022-10-16T19:34:02.722Z,15.40
2022-10-16T19:36:32.364Z,15.30
2022-10-16T19:39:10.361Z,15.30
2022-10-16T19:41:37.984Z,15.30
2022-10-16T19:44:08.152Z,15.20
2022-10-16T19:46:35.568Z,15.10
2022-10-16T19:49:04.820Z,15.10
2022-10-16T19:51:31.821Z,15.20
2022-10-16T19:54:01.436Z,15.10
2022-10-16T19:56:29.887Z,15.10
2022-10-16T19:58:57.808Z,15.10
2022-10-16T20:01:26.069Z,15.10
2022-10-16T20:03:53.199Z,15.10
2022-10-16T20:09:10.767Z,15.10
2022-10-16T20:11:37.967Z,15.00
2022-10-16T20:14:07.698Z,15.00
2022-10-16T20:16:34.660Z,14.90
2022-10-16T20:19:01.836Z,14.80
2022-10-16T20:21:31.204Z,14.70
2022-10-16T20:24:01.685Z,14.80
2022-10-16T20:26:28.455Z,14.80
2022-10-16T20:28:55.281Z,14.80
2022-10-16T20:31:25.122Z,14.80
2022-10-16T20:33:54.390Z,14.80
2022-10-16T20:36:22.785Z,14.80
2022-10-16T20:38:49.968Z,14.60
2022-10-16T20:41:18.252Z,14.30
2022-10-16T20:43:47.550Z,14.10
2022-10-16T20:46:18.590Z,13.90
2022-10-16T20:48:46.937Z,13.80
2022-10-16T20:51:18.682Z,13.80
2022-10-16T20:53:46.850Z,13.90
2022-10-16T20:56:15.858Z,14.00
2022-10-16T20:58:42.752Z,14.00
2022-10-16T21:01:13.006Z,14.00
2022-10-16T21:03:39.828Z,14.00
2022-10-16T21:06:08.163Z,14.10
2022-10-16T21:08:39.408Z,14.20
2022-10-16T21:11:18.139Z,14.20
2022-10-16T21:13:45.306Z,14.20
2022-10-16T21:16:12.964Z,14.20
2022-10-16T21:18:44.228Z,14.30
2022-10-16T21:21:19.028Z,14.30
2022-10-16T21:23:45.541Z,14.30
2022-10-16T21:26:12.183Z,14.30
2022-10-16T21:28:38.807Z,14.30
2022-10-16T21:31:18.854Z,14.30
2022-10-16T21:33:46.033Z,14.30
2022-10-16T21:36:21.223Z,14.30
2022-10-16T21:38:48.734Z,14.30
2022-10-16T21:41:21.144Z,14.20
2022-10-16T21:43:47.879Z,14.00
2022-10-16T21:46:16.326Z,13.90
2022-10-16T21:48:43.063Z,13.90
2022-10-16T21:51:11.167Z,13.90
2022-10-16T21:53:38.377Z,13.80
2022-10-16T21:56:06.340Z,13.80
2022-10-16T21:58:33.488Z,13.70
2022-10-16T22:01:07.270Z,13.60
2022-10-16T22:03:33.867Z,13.60
2022-10-16T22:06:06.514Z,13.60
2022-10-16T22:08:34.866Z,13.70
2022-10-16T22:11:06.504Z,13.70
2022-10-16T22:13:33.576Z,13.70
2022-10-16T22:16:00.418Z,13.70
2022-10-16T22:18:27.490Z,13.70
2022-10-16T22:20:54.144Z,13.70
2022-10-16T22:23:21.702Z,13.80
2022-10-16T22:25:48.447Z,13.80
2022-10-16T22:28:18.076Z,13.90
2022-10-16T22:30:46.008Z,13.80
2022-10-16T22:33:12.986Z,13.80
2022-10-16T22:35:40.769Z,13.80
2022-10-16T22:38:07.762Z,13.90
2022-10-16T22:40:35.543Z,13.80
2022-10-16T22:43:03.514Z,13.80
2022-10-16T22:45:31.052Z,13.80
2022-10-16T22:47:57.661Z,13.70
2022-10-16T22:50:25.220Z,13.70
2022-10-16T22:52:52.332Z,13.70
2022-10-16T22:55:18.995Z,13.70
2022-10-16T22:57:45.653Z,13.70
2022-10-16T23:00:16.842Z,13.70
2022-10-16T23:02:43.651Z,13.70
2022-10-16T23:05:11.064Z,13.80
2022-10-16T23:07:38.005Z,13.80
2022-10-16T23:10:06.113Z,13.80
2022-10-16T23:12:33.418Z,13.80
2022-10-16T23:14:59.972Z,13.90
2022-10-16T23:17:26.608Z,13.90
2022-10-16T23:19:53.163Z,13.90
2022-10-16T23:22:19.695Z,13.80
2022-10-16T23:24:46.232Z,13.90
2022-10-16T23:27:12.967Z,13.80
2022-10-16T23:29:39.531Z,13.90
2022-10-16T23:32:06.079Z,13.80
2022-10-16T23:34:32.669Z,13.90
2022-10-16T23:36:59.342Z,13.80
2022-10-16T23:39:25.922Z,13.90
2022-10-16T23:41:52.483Z,13.90
2022-10-16T23:44:19.149Z,13.90
2022-10-16T23:46:45.673Z,13.90
2022-10-16T23:49:12.220Z,13.90
2022-10-16T23:51:39.097Z,13.90
2022-10-16T23:54:05.638Z,13.90
2022-10-16T23:56:32.204Z,13.90
2022-10-16T23:58:58.720Z,13.90
